Nearby METAR Reports

 

EGEO - Oban, United Kingdom
Distance from station: SSW 18mi, 30km
Updated: 10/08/2020 16:20
NOT Current
Few Clouds
Few Clouds
 Wind from WNW
Wind: WNW 7 mph , 11 km/h
Temperature: 20°C
Dew Point: 12°C
Humidity: 60%
Barometer: 1019 hPa
Clouds: Few Clouds
Visibility: 6 miles , 10 km
Cloud details: Few Clouds 1189 m
2020/08/10 15:20 EGEO 101520Z 29006KT 9999 FEW039 20/12 Q1019
EGPU - Tiree, United Kingdom
Distance from station: WSW 64mi, 103km
Updated: 11/08/2020 03:50
Clear
Clear
 Wind from NE
Wind: NE 6 mph , 9 km/h
Temperature: 14°C
Dew Point: 13°C
Humidity: 94%
Barometer: 1018 hPa
Clouds: Clear
Visibility: 6 miles , 10 km
2020/08/11 02:50 EGPU 110250Z AUTO 05005KT 9999 NCD 14/13 Q1018
EGPF - Glasgow, United Kingdom
Distance from station: SSE 66mi, 107km
Updated: 11/08/2020 04:20
Light rain, Thunderstorm
Light rain, Thunderstorm
 Wind from E
Wind: E 9 mph , 15 km/h
Temperature: 14°C
Dew Point: 13°C
Humidity: 94%
Barometer: 1020 hPa
Summary: Light rain
Clouds: Thunderstorm
Visibility: 6 miles , 10 km
2020/08/11 03:20 EGPF 110320Z AUTO 08008KT 9999 -RA //////CB 14/13 Q1020
 
EGPE - Inverness, United Kingdom
Distance from station: NE 71mi, 114km
Updated: 11/08/2020 04:20
Overcast
Overcast
 Wind from NE
Wind: NE 3 mph , 6 km/h
Temperature: 14°C
Dew Point: 13°C
Humidity: 94%
Barometer: 1021 hPa
Clouds: Overcast
Visibility: 6 miles , 10 km
Cloud details: Overcast 122 m
2020/08/11 03:20 EGPE 110320Z AUTO 05003KT 9999 OVC004/// 14/13 Q1021
EGPI - Islay/Port Ellen, United Kingdom
Distance from station: SSW 81mi, 131km
Updated: 11/08/2020 04:20
Clear
Clear
 Wind from E
Wind: E 5 mph , 7 km/h
Temperature: 16°C
Dew Point: 11°C
Humidity: 72%
Barometer: 1018 hPa
Clouds: Clear
Visibility: 6 miles , 10 km
2020/08/11 03:20 EGPI 110320Z AUTO 08004KT 010V140 9999 NCD 16/11 Q1018
EGPN - Dundee/Riverside, United Kingdom
Distance from station: E 86mi, 138km
Updated: 10/08/2020 20:20
NOT Current
Few Clouds
Few Clouds
 Wind from E
Wind: E 3 mph , 6 km/h
Temperature: 16°C
Dew Point: 14°C
Humidity: 88%
Barometer: 1021 hPa
Clouds: Few Clouds
Visibility: 6 miles , 10 km
Cloud details: Few Clouds 762 m
2020/08/10 19:20 EGPN 101920Z 09003KT 9999 FEW025 16/14 Q1021
 
EGPK - Prestwick, United Kingdom
Distance from station: SSE 88mi, 141km
Updated: 11/08/2020 03:50
Light rain, Partly cloudy
Light rain, Partly cloudy
 Wind from NE
Wind: NE 5 mph , 7 km/h
Temperature: 14°C
Dew Point: 13°C
Humidity: 94%
Barometer: 1019 hPa
Summary: Light rain
Clouds: Partly cloudy
Visibility: 6 miles , 10 km
Cloud details: Few Clouds 457 m
Partly cloudy 1463 m
2020/08/11 02:50 EGPK 110250Z 05004KT 9999 -RA FEW015 SCT048 14/13 Q1019
EGPH - Edinburgh, United Kingdom
Distance from station: SE 89mi, 143km
Updated: 11/08/2020 04:20
Light rain, Overcast
Light rain, Overcast
 Wind from E
Wind: E 5 mph , 7 km/h
Temperature: 14°C
Dew Point: 14°C
Humidity: 100%
Barometer: 1020 hPa
Summary: Light rain
Clouds: Overcast
Visibility: 4 miles , 7 km
Cloud details: Overcast 122 m
2020/08/11 03:20 EGPH 110320Z 08004KT 7000 -RA OVC004 14/14 Q1020
EGQK - RAF Kinloss, United Kingdom
Distance from station: NE 90mi, 144km
Updated: 11/08/2020 03:50
Overcast
Overcast
 Wind from SW
Wind: SW 8 mph , 13 km/h
Temperature: 14°C
Dew Point: 13°C
Humidity: 94%
Barometer: 1020 hPa
Clouds: Overcast
Visibility: 6 miles , 10 km
Cloud details: Overcast 61 m
2020/08/11 02:50 EGQK 110250Z AUTO 23007KT 9999 OVC002/// 14/13 Q1020
 
EGEC - Campbeltown, United Kingdom
Distance from station: S 90mi, 145km
Updated: 10/08/2020 17:20
NOT Current
Clear
Clear
 Wind from W
Wind: W 8 mph , 13 km/h
Temperature: 17°C
Dew Point: 13°C
Humidity: 77%
Barometer: 1019 hPa
Summary: Clear
Visibility: greater than 7 miles , 10 km
2020/08/10 16:20 EGEC 101620Z 27007KT CAVOK 17/13 Q1019
EGQA - Tain Range, United Kingdom
Distance from station: NNE 91mi, 146km
Updated: 05/08/2020 17:50
NOT Current
Mostly cloudy
Mostly cloudy
 Wind from SSW
Wind: SSW 9 mph , 15 km/h
Clouds: Mostly cloudy
Visibility: 6 miles , 10 km
Cloud details: Partly cloudy 732 m
Mostly cloudy 1219 m
2020/08/05 16:50 EGQA 051650Z 21008KT 9999 SCT024 BKN040 18/// Q1003 WHT
EGQL - RAF Leuchars, United Kingdom
Distance from station: ESE 93mi, 149km
Updated: 11/08/2020 03:50
Mostly cloudy
Mostly cloudy
 Wind from NE
Wind: NE 6 mph , 9 km/h
Temperature: 14°C
Dew Point: 14°C
Humidity: 100%
Barometer: 1020 hPa
Clouds: Mostly cloudy
Visibility: 6 miles , 10 km
Cloud details: Partly cloudy 183 m
Partly cloudy 1280 m
Mostly cloudy 1829 m
2020/08/11 02:50 EGQL 110250Z 05005KT 9999 SCT006 SCT042 BKN060 14/14 Q1020 YLO1
 
EGPL - Benbecula, United Kingdom
Distance from station: WNW 96mi, 154km
Updated: 10/08/2020 15:20
NOT Current
Few Clouds
Few Clouds
 Wind from varies
Wind: varies 3 mph , 6 km/h
Temperature: 17°C
Dew Point: 14°C
Humidity: 83%
Barometer: 1020 hPa
Clouds: Few Clouds
Visibility: 6 miles , 10 km
Cloud details: Few Clouds 671 m
2020/08/10 14:20 EGPL 101420Z VRB03KT 9999 FEW022 17/14 Q1020
EGQS - RAF Lossiemouth, United Kingdom
Distance from station: NE 99mi, 160km
Updated: 11/08/2020 03:50
Mostly cloudy
Mostly cloudy
 Wind from WSW
Wind: WSW 3 mph , 6 km/h
Temperature: 13°C
Dew Point: 13°C
Humidity: 100%
Barometer: 1021 hPa
Clouds: Mostly cloudy
Visibility: 6 miles , 10 km
Cloud details: Partly cloudy 1067 m
Mostly cloudy 4267 m
2020/08/11 02:50 EGQS 110250Z 24003KT 9999 SCT035 BKN140 13/13 Q1021 RMK BLU
EGPO - Stornoway, United Kingdom
Distance from station: NNW 111mi, 179km
Updated: 11/08/2020 04:20
Clear
Clear
 Wind from NNW
Wind: NNW 6 mph , 9 km/h
Temperature: 12°C
Dew Point: 11°C
Humidity: 94%
Barometer: 1020 hPa
Clouds: Clear
Visibility: 6 miles , 10 km
2020/08/11 03:20 EGPO 110320Z AUTO 33005KT 9999 NCD 12/11 Q1020
 
EGPD - Aberdeen/Dyce, United Kingdom
Distance from station: ENE 118mi, 190km
Updated: 11/08/2020 04:20
Mist, Overcast
Mist, Overcast
 Wind from NW
Wind: NW 5 mph , 7 km/h
Temperature: 13°C
Dew Point: 13°C
Humidity: 100%
Barometer: 1021 hPa
Summary: Mist
Clouds: Overcast
Visibility: 2 miles , 3 km
Cloud details: Overcast 61 m
2020/08/11 03:20 EGPD 110320Z AUTO 31004KT 2500 BR OVC002 13/13 Q1021
EGAE - Eglinton/Londond, United Kingdom
Distance from station: SSW 138mi, 222km
Updated: 10/08/2020 20:20
NOT Current
Nearby showers, Few clouds
Nearby showers, Few clouds
 Wind from NE
Wind: NE 9 mph , 15 km/h
Temperature: 16°C
Dew Point: 14°C
Humidity: 88%
Barometer: 1018 hPa
Summary: Nearby Showers
Clouds: Few Clouds
Visibility: 6 miles , 10 km
Cloud details: Few Clouds 1067 m
2020/08/10 19:20 EGAE 101920Z 04008KT 9999 VCSH FEW035 16/14 Q1018
EGPC - Wick, United Kingdom
Distance from station: NNE 144mi, 232km
Updated: 11/08/2020 04:20
Fog
Fog
 Wind from E
Wind: E 7 mph , 11 km/h
Temperature: 13°C
Dew Point: 13°C
Humidity: 100%
Barometer: 1021 hPa
Summary: Fog
Visibility: 0 mile , 0 km
2020/08/11 03:20 EGPC 110320Z AUTO 09006KT 0300 FG VV/// 13/13 Q1021

Metar display script from Saratoga-Weather.org